createdAt,value
2024-01-26T00:04:12.715Z,3.90
2024-01-26T00:08:36.287Z,6.00
2024-01-26T00:13:00.072Z,3.10
2024-01-26T00:17:24.938Z,5.97
2024-01-26T00:21:48.655Z,5.47
2024-01-26T00:26:14.524Z,4.13
2024-01-26T00:30:38.212Z,3.20
2024-01-26T00:35:03.068Z,5.40
2024-01-26T00:39:27.081Z,5.95
2024-01-26T00:43:50.402Z,6.20
2024-01-26T00:48:13.802Z,5.47
2024-01-26T00:52:38.542Z,4.30
2024-01-26T00:57:03.136Z,3.65
2024-01-26T01:01:27.489Z,5.78
2024-01-26T01:05:51.297Z,5.28
2024-01-26T01:10:16.844Z,5.05
2024-01-26T01:14:41.975Z,3.50
2024-01-26T01:19:05.449Z,5.00
2024-01-26T01:23:29.271Z,4.78
2024-01-26T01:27:54.409Z,8.82
2024-01-26T01:32:18.094Z,4.60
2024-01-26T01:36:41.411Z,7.25
2024-01-26T01:41:05.502Z,5.45
2024-01-26T01:45:30.271Z,11.38
2024-01-26T01:49:53.986Z,5.88
2024-01-26T01:54:20.636Z,6.03
2024-01-26T01:58:44.613Z,4.82
2024-01-26T02:03:12.221Z,7.25
2024-01-26T02:07:36.070Z,7.43
2024-01-26T02:12:01.033Z,7.47
2024-01-26T02:16:24.855Z,5.88
2024-01-26T02:20:55.284Z,8.82
2024-01-26T02:25:21.282Z,8.52
2024-01-26T02:29:44.682Z,7.10
2024-01-26T02:34:12.775Z,4.68
2024-01-26T02:38:36.255Z,3.92
2024-01-26T02:43:01.392Z,5.63
2024-01-26T02:47:24.783Z,4.85
2024-01-26T02:51:48.567Z,5.93
2024-01-26T02:56:11.929Z,4.97
2024-01-26T03:00:37.127Z,4.70
2024-01-26T03:05:01.467Z,4.82
2024-01-26T03:09:25.177Z,5.72
2024-01-26T03:13:48.508Z,4.35
2024-01-26T03:18:13.605Z,5.53
2024-01-26T03:22:37.102Z,4.63
2024-01-26T03:27:01.040Z,6.53
2024-01-26T03:31:24.461Z,5.55
2024-01-26T03:35:49.566Z,6.72
2024-01-26T03:40:13.354Z,2.97
2024-01-26T03:44:37.109Z,4.43
2024-01-26T03:49:00.708Z,6.35
2024-01-26T03:53:25.872Z,5.28
2024-01-26T03:57:49.227Z,5.68
2024-01-26T04:02:13.035Z,6.38
2024-01-26T04:06:41.327Z,7.75
2024-01-26T04:11:06.637Z,7.43
2024-01-26T04:15:30.407Z,5.00
2024-01-26T04:19:54.216Z,3.13
2024-01-26T04:24:17.676Z,4.53
2024-01-26T04:28:42.432Z,5.75
2024-01-26T04:33:06.315Z,6.28
2024-01-26T04:37:30.062Z,6.05
2024-01-26T04:41:53.450Z,4.45
2024-01-26T04:46:18.625Z,7.35
2024-01-26T04:50:42.021Z,5.15
2024-01-26T04:55:06.430Z,6.55
2024-01-26T04:59:29.782Z,5.30
2024-01-26T05:03:55.956Z,4.90
2024-01-26T05:08:19.588Z,6.55
2024-01-26T05:12:42.949Z,3.22
2024-01-26T05:17:06.672Z,4.55
2024-01-26T05:21:31.745Z,6.43
2024-01-26T05:25:55.161Z,2.50
2024-01-26T05:30:19.160Z,6.05
2024-01-26T05:34:42.893Z,10.52
2024-01-26T05:39:08.376Z,9.20
2024-01-26T05:43:31.778Z,7.28
2024-01-26T05:47:55.557Z,6.45
2024-01-26T05:52:19.015Z,6.32
2024-01-26T05:56:44.354Z,3.78
2024-01-26T06:01:07.865Z,3.85
2024-01-26T06:05:31.719Z,3.95
2024-01-26T06:09:55.912Z,6.45
2024-01-26T06:14:22.385Z,5.15
2024-01-26T06:18:46.380Z,7.35
2024-01-26T06:23:10.213Z,6.80
2024-01-26T06:27:33.566Z,10.73
2024-01-26T06:32:01.945Z,6.93
2024-01-26T06:36:25.272Z,6.72
2024-01-26T06:40:48.968Z,7.40
2024-01-26T06:45:13.585Z,5.82
2024-01-26T06:49:39.018Z,9.27
2024-01-26T06:54:02.961Z,5.97
2024-01-26T06:58:27.104Z,4.88
2024-01-26T07:02:50.478Z,9.50
2024-01-26T07:07:15.739Z,4.72
2024-01-26T07:11:39.842Z,6.45
2024-01-26T07:16:03.354Z,11.15
2024-01-26T07:20:27.220Z,5.47
2024-01-26T07:24:52.243Z,9.45
2024-01-26T07:29:15.622Z,7.57
2024-01-26T07:33:39.520Z,12.65
2024-01-26T07:38:03.087Z,9.65
2024-01-26T07:42:28.444Z,11.60
2024-01-26T07:46:51.812Z,6.88
2024-01-26T07:51:15.354Z,10.75
2024-01-26T07:55:38.702Z,8.48
2024-01-26T08:00:03.894Z,13.07
2024-01-26T08:04:28.211Z,12.88
2024-01-26T08:08:52.120Z,9.68
2024-01-26T08:13:16.177Z,10.18
2024-01-26T08:17:42.692Z,13.77
2024-01-26T08:22:07.111Z,10.98
2024-01-26T08:26:31.976Z,6.38
2024-01-26T08:30:55.532Z,5.68
2024-01-26T08:35:20.819Z,7.32
2024-01-26T08:39:46.970Z,5.97
2024-01-26T08:44:10.622Z,8.60
2024-01-26T08:48:34.132Z,10.60
2024-01-26T08:52:59.344Z,10.13
2024-01-26T08:57:22.749Z,4.57
2024-01-26T09:01:46.553Z,7.25
2024-01-26T09:06:10.580Z,5.68
2024-01-26T09:10:35.787Z,3.65
2024-01-26T09:14:59.744Z,5.35
2024-01-26T09:19:23.558Z,7.93
2024-01-26T09:23:47.021Z,11.23
2024-01-26T09:28:12.058Z,8.52
2024-01-26T09:32:36.467Z,6.05
2024-01-26T09:37:00.271Z,3.78
2024-01-26T09:41:23.701Z,5.88
2024-01-26T09:45:52.310Z,8.50
2024-01-26T09:50:17.564Z,7.90
2024-01-26T09:54:42.632Z,10.13
2024-01-26T09:59:06.225Z,9.10
2024-01-26T10:03:34.712Z,12.27
2024-01-26T10:07:58.826Z,11.75
2024-01-26T10:12:23.470Z,10.20
2024-01-26T10:16:55.786Z,8.20
2024-01-26T10:21:21.893Z,13.15
2024-01-26T10:25:46.653Z,7.88
2024-01-26T10:30:13.412Z,12.27
2024-01-26T10:34:41.936Z,8.27
2024-01-26T10:39:08.734Z,16.73
2024-01-26T10:43:34.154Z,8.60
2024-01-26T10:48:00.353Z,10.13
2024-01-26T10:52:27.173Z,7.60
2024-01-26T10:56:54.004Z,9.20
2024-01-26T11:01:17.582Z,7.47
2024-01-26T11:05:41.703Z,11.25
2024-01-26T11:10:07.931Z,11.23
2024-01-26T11:14:35.349Z,11.05
2024-01-26T11:19:00.320Z,12.70
2024-01-26T11:23:24.177Z,11.38
2024-01-26T11:27:47.811Z,8.07
2024-01-26T11:32:21.393Z,6.15
2024-01-26T11:36:44.750Z,9.27
2024-01-26T11:41:09.339Z,9.60
2024-01-26T11:45:42.754Z,6.68
2024-01-26T11:50:09.478Z,8.55
2024-01-26T11:54:33.215Z,6.32
2024-01-26T11:58:57.121Z,9.98
2024-01-26T12:03:21.775Z,9.55
2024-01-26T12:07:47.570Z,6.22
2024-01-26T12:12:12.546Z,7.60
2024-01-26T12:16:36.474Z,6.82
2024-01-26T12:21:00.403Z,4.68
2024-01-26T12:25:29.288Z,7.25
2024-01-26T12:29:53.200Z,7.68
2024-01-26T12:34:17.431Z,7.75
2024-01-26T12:38:41.063Z,8.30
2024-01-26T12:43:07.589Z,6.40
2024-01-26T12:47:30.959Z,4.70
2024-01-26T12:51:56.125Z,6.30
2024-01-26T12:56:19.489Z,7.93
2024-01-26T13:00:45.084Z,10.65
2024-01-26T13:05:10.027Z,11.32
2024-01-26T13:09:35.314Z,8.68
2024-01-26T13:13:58.675Z,10.05
2024-01-26T13:18:27.562Z,9.73
2024-01-26T13:22:53.412Z,25.40
2024-01-26T13:27:20.633Z,6.15
2024-01-26T13:31:47.906Z,9.20
2024-01-26T13:36:13.065Z,8.07
2024-01-26T13:40:36.503Z,9.80
2024-01-26T13:45:01.064Z,12.32
2024-01-26T13:49:24.697Z,10.65
2024-01-26T13:53:49.947Z,12.77
2024-01-26T13:58:13.344Z,6.40
2024-01-26T14:02:37.466Z,9.57
2024-01-26T14:07:09.028Z,10.60
2024-01-26T14:11:36.653Z,11.68
2024-01-26T14:16:00.889Z,11.10
2024-01-26T14:20:25.493Z,12.50
2024-01-26T14:24:49.230Z,26.27
2024-01-26T14:29:17.106Z,9.18
2024-01-26T14:33:40.621Z,7.47
2024-01-26T14:38:04.523Z,5.18
2024-01-26T14:42:27.982Z,7.18
2024-01-26T14:46:55.202Z,12.43
2024-01-26T14:51:20.074Z,8.90
2024-01-26T14:55:44.062Z,12.35
2024-01-26T15:00:09.703Z,8.73
2024-01-26T15:04:35.357Z,6.80
2024-01-26T15:08:59.182Z,9.95
2024-01-26T15:13:22.861Z,9.55
2024-01-26T15:17:49.558Z,7.15
2024-01-26T15:22:16.017Z,13.90
2024-01-26T15:26:42.330Z,10.32
2024-01-26T15:31:07.096Z,9.50
2024-01-26T15:35:30.401Z,8.77
2024-01-26T15:39:55.635Z,6.22
2024-01-26T15:44:18.997Z,8.93
2024-01-26T15:48:42.964Z,8.27
2024-01-26T15:53:06.953Z,9.88
2024-01-26T15:57:31.954Z,7.18
2024-01-26T16:01:55.287Z,7.72
2024-01-26T16:06:19.229Z,9.48
2024-01-26T16:10:43.949Z,14.20
2024-01-26T16:15:11.144Z,12.80
2024-01-26T16:19:36.006Z,11.70
2024-01-26T16:24:00.134Z,7.60
2024-01-26T16:28:23.666Z,8.35
2024-01-26T16:32:48.820Z,5.90
2024-01-26T16:37:12.205Z,7.40
2024-01-26T16:41:35.895Z,7.60
2024-01-26T16:45:59.187Z,6.72
2024-01-26T16:50:24.263Z,7.95
2024-01-26T16:54:47.988Z,7.22
2024-01-26T16:59:11.602Z,6.68
2024-01-26T17:04:49.196Z,8.45
2024-01-26T17:09:25.152Z,7.03
2024-01-26T17:13:49.139Z,9.63
2024-01-26T17:18:12.550Z,8.45
2024-01-26T17:22:38.215Z,7.43
2024-01-26T17:27:03.487Z,7.65
2024-01-26T17:31:27.323Z,10.13
2024-01-26T17:35:50.713Z,9.75
2024-01-26T17:40:15.003Z,6.60
2024-01-26T17:44:39.955Z,7.70
2024-01-26T17:49:04.264Z,8.32
2024-01-26T17:53:27.653Z,10.48
2024-01-26T17:57:51.382Z,10.35
2024-01-26T18:02:16.098Z,10.95
2024-01-26T18:06:40.154Z,11.00
2024-01-26T18:11:05.547Z,11.85
2024-01-26T18:15:29.721Z,10.75
2024-01-26T18:19:54.511Z,8.73
2024-01-26T18:24:18.136Z,8.55
2024-01-26T18:28:41.572Z,9.05
2024-01-26T18:33:08.360Z,10.23
2024-01-26T18:37:40.182Z,9.45
2024-01-26T18:42:05.497Z,10.98
2024-01-26T18:46:28.963Z,11.82
2024-01-26T18:50:53.216Z,15.07
2024-01-26T18:55:18.153Z,10.55
2024-01-26T18:59:41.989Z,11.43
2024-01-26T19:04:06.001Z,11.43
2024-01-26T19:08:29.963Z,12.48
2024-01-26T19:12:55.149Z,14.73
2024-01-26T19:17:19.251Z,10.60
2024-01-26T19:21:44.884Z,9.20
2024-01-26T19:26:08.710Z,6.63
2024-01-26T19:30:37.027Z,3.40
2024-01-26T19:35:03.683Z,1.25
2024-01-26T19:39:27.077Z,1.92
2024-01-26T19:43:52.564Z,2.08
2024-01-26T19:48:17.566Z,1.58
2024-01-26T19:52:45.045Z,1.15
2024-01-26T19:57:08.636Z,1.00
2024-01-26T20:01:32.519Z,1.00
2024-01-26T20:05:57.365Z,1.10
2024-01-26T20:10:21.939Z,1.27
2024-01-26T20:14:45.351Z,1.10
2024-01-26T20:19:09.260Z,0.70
2024-01-26T20:23:34.160Z,1.85
2024-01-26T20:27:57.641Z,1.48
2024-01-26T20:32:22.413Z,1.00
2024-01-26T20:36:46.452Z,0.95
2024-01-26T20:41:11.238Z,0.98
2024-01-26T20:45:41.261Z,5.30
2024-01-26T20:50:06.184Z,2.65
2024-01-26T20:54:29.954Z,2.75
2024-01-26T20:58:54.742Z,14.98
2024-01-26T21:03:19.141Z,0.85
2024-01-26T21:07:46.038Z,1.25
2024-01-26T21:12:10.574Z,0.60
2024-01-26T21:16:35.389Z,0.35
2024-01-26T21:20:58.909Z,0.43
2024-01-26T21:25:22.304Z,0.90
2024-01-26T21:29:53.197Z,0.85
2024-01-26T21:34:18.330Z,0.40
2024-01-26T21:38:42.178Z,0.90
2024-01-26T21:43:06.579Z,0.50
2024-01-26T21:47:30.648Z,0.45
2024-01-26T21:51:58.271Z,0.65
2024-01-26T21:56:22.520Z,0.88
2024-01-26T22:00:45.965Z,0.60
2024-01-26T22:05:13.177Z,0.73
2024-01-26T22:09:38.085Z,1.98
2024-01-26T22:14:01.904Z,0.55
2024-01-26T22:18:25.426Z,0.40
2024-01-26T22:22:49.586Z,0.82
2024-01-26T22:27:14.721Z,1.23
2024-01-26T22:31:38.521Z,0.85
2024-01-26T22:36:01.943Z,0.90
2024-01-26T22:40:25.689Z,0.73
2024-01-26T22:44:50.475Z,1.13
2024-01-26T22:49:14.427Z,1.75
2024-01-26T22:53:37.925Z,0.65
2024-01-26T22:58:01.285Z,16.27
2024-01-26T23:02:26.375Z,0.57
2024-01-26T23:06:51.216Z,0.60
2024-01-26T23:11:15.465Z,1.23
2024-01-26T23:15:38.887Z,1.23
2024-01-26T23:20:03.677Z,0.60
2024-01-26T23:24:28.270Z,1.58
2024-01-26T23:28:51.689Z,1.92
2024-01-26T23:33:15.679Z,1.00
2024-01-26T23:37:40.562Z,0.88
2024-01-26T23:42:04.673Z,1.75
2024-01-26T23:46:28.083Z,0.30
2024-01-26T23:50:51.882Z,1.10
2024-01-26T23:55:17.017Z,0.32
2024-01-26T23:59:40.868Z,0.32
